sensor_id;sensor_type;location;lat;lon;timestamp;pressure;altitude;pressure_sealevel;temperature;humidity
14295;BME280;7231;59.370;18.016;2023-03-05T00:01:28;100110.44;;;-2.11;51.94
14295;BME280;7231;59.370;18.016;2023-03-05T00:04:01;100111.13;;;-2.13;51.49
14295;BME280;7231;59.370;18.016;2023-03-05T00:06:30;100115.38;;;-2.14;51.43
14295;BME280;7231;59.370;18.016;2023-03-05T00:08:59;100108.44;;;-2.15;51.39
14295;BME280;7231;59.370;18.016;2023-03-05T00:11:28;100096.56;;;-2.26;51.89
14295;BME280;7231;59.370;18.016;2023-03-05T00:13:58;100116.84;;;-2.17;51.69
14295;BME280;7231;59.370;18.016;2023-03-05T00:16:27;100115.84;;;-2.19;51.72
14295;BME280;7231;59.370;18.016;2023-03-05T00:18:57;100111.50;;;-2.20;51.98
14295;BME280;7231;59.370;18.016;2023-03-05T00:21:28;100100.91;;;-2.38;51.95
14295;BME280;7231;59.370;18.016;2023-03-05T00:23:57;100111.19;;;-2.25;52.14
14295;BME280;7231;59.370;18.016;2023-03-05T00:26:27;100111.09;;;-2.26;52.29
14295;BME280;7231;59.370;18.016;2023-03-05T00:28:56;100078.84;;;-2.48;52.20
14295;BME280;7231;59.370;18.016;2023-03-05T00:31:26;100091.41;;;-2.39;52.19
14295;BME280;7231;59.370;18.016;2023-03-05T00:34:00;100062.72;;;-2.58;52.60
14295;BME280;7231;59.370;18.016;2023-03-05T00:36:30;100033.50;;;-2.74;52.17
14295;BME280;7231;59.370;18.016;2023-03-05T00:38:58;100101.00;;;-2.37;52.50
14295;BME280;7231;59.370;18.016;2023-03-05T00:41:26;100090.53;;;-2.40;52.70
14295;BME280;7231;59.370;18.016;2023-03-05T00:43:54;100107.31;;;-2.32;52.37
14295;BME280;7231;59.370;18.016;2023-03-05T00:46:23;100102.09;;;-2.33;52.55
14295;BME280;7231;59.370;18.016;2023-03-05T00:48:53;100107.91;;;-2.36;52.51
14295;BME280;7231;59.370;18.016;2023-03-05T00:51:22;100103.56;;;-2.37;52.61
14295;BME280;7231;59.370;18.016;2023-03-05T00:53:51;100105.94;;;-2.40;52.70
14295;BME280;7231;59.370;18.016;2023-03-05T00:56:19;100098.81;;;-2.44;52.81
14295;BME280;7231;59.370;18.016;2023-03-05T00:58:47;100102.94;;;-2.46;52.69
14295;BME280;7231;59.370;18.016;2023-03-05T01:01:16;100090.28;;;-2.56;52.87
14295;BME280;7231;59.370;18.016;2023-03-05T01:03:44;100100.16;;;-2.49;52.77
14295;BME280;7231;59.370;18.016;2023-03-05T01:06:13;100078.75;;;-2.63;52.97
14295;BME280;7231;59.370;18.016;2023-03-05T01:08:42;100099.97;;;-2.52;52.99
14295;BME280;7231;59.370;18.016;2023-03-05T01:11:11;100107.66;;;-2.52;53.28
14295;BME280;7231;59.370;18.016;2023-03-05T01:13:40;100076.66;;;-2.68;53.17
14295;BME280;7231;59.370;18.016;2023-03-05T01:16:08;100080.63;;;-2.60;53.08
14295;BME280;7231;59.370;18.016;2023-03-05T01:18:37;100093.84;;;-2.54;53.55
14295;BME280;7231;59.370;18.016;2023-03-05T01:21:05;100064.41;;;-2.72;53.55
14295;BME280;7231;59.370;18.016;2023-03-05T01:23:33;100090.38;;;-2.54;53.24
14295;BME280;7231;59.370;18.016;2023-03-05T01:26:03;100086.72;;;-2.58;53.33
14295;BME280;7231;59.370;18.016;2023-03-05T01:28:33;100046.81;;;-2.79;53.47
14295;BME280;7231;59.370;18.016;2023-03-05T01:31:06;100080.53;;;-2.62;53.41
14295;BME280;7231;59.370;18.016;2023-03-05T01:33:34;100075.97;;;-2.66;53.34
14295;BME280;7231;59.370;18.016;2023-03-05T01:36:06;100077.53;;;-2.68;53.91
14295;BME280;7231;59.370;18.016;2023-03-05T01:38:34;100076.66;;;-2.68;53.87
14295;BME280;7231;59.370;18.016;2023-03-05T01:41:02;100067.97;;;-2.70;53.74
14295;BME280;7231;59.370;18.016;2023-03-05T01:43:30;100053.72;;;-2.78;53.87
14295;BME280;7231;59.370;18.016;2023-03-05T01:46:34;100051.44;;;-2.87;54.54
14295;BME280;7231;59.370;18.016;2023-03-05T01:49:05;100063.19;;;-2.77;54.21
14295;BME280;7231;59.370;18.016;2023-03-05T01:51:38;100051.63;;;-2.84;54.47
14295;BME280;7231;59.370;18.016;2023-03-05T01:54:09;100046.78;;;-2.92;54.12
14295;BME280;7231;59.370;18.016;2023-03-05T01:56:38;100060.22;;;-2.83;54.14
14295;BME280;7231;59.370;18.016;2023-03-05T01:59:07;100064.56;;;-2.82;54.73
14295;BME280;7231;59.370;18.016;2023-03-05T02:01:39;99985.72;;;-3.23;54.51
14295;BME280;7231;59.370;18.016;2023-03-05T02:04:11;100055.97;;;-2.83;54.74
14295;BME280;7231;59.370;18.016;2023-03-05T02:06:41;100053.31;;;-2.84;55.02
14295;BME280;7231;59.370;18.016;2023-03-05T02:09:10;100024.31;;;-3.08;54.58
14295;BME280;7231;59.370;18.016;2023-03-05T02:11:38;100067.59;;;-2.88;55.02
14295;BME280;7231;59.370;18.016;2023-03-05T02:14:07;100030.91;;;-3.12;54.41
14295;BME280;7231;59.370;18.016;2023-03-05T02:16:37;100066.50;;;-2.91;54.54
14295;BME280;7231;59.370;18.016;2023-03-05T02:19:07;100048.72;;;-3.02;54.99
14295;BME280;7231;59.370;18.016;2023-03-05T02:21:38;99907.28;;;-3.82;54.90
14295;BME280;7231;59.370;18.016;2023-03-05T02:24:10;100055.72;;;-2.99;54.90
14295;BME280;7231;59.370;18.016;2023-03-05T02:26:38;100054.50;;;-3.04;54.84
14295;BME280;7231;59.370;18.016;2023-03-05T02:29:08;100012.03;;;-3.25;55.40
14295;BME280;7231;59.370;18.016;2023-03-05T02:31:37;100048.59;;;-3.03;55.19
14295;BME280;7231;59.370;18.016;2023-03-05T02:34:05;100049.38;;;-3.04;55.12
14295;BME280;7231;59.370;18.016;2023-03-05T02:36:33;99979.53;;;-3.38;55.16
14295;BME280;7231;59.370;18.016;2023-03-05T02:39:03;100030.06;;;-3.24;55.17
14295;BME280;7231;59.370;18.016;2023-03-05T02:41:31;100031.75;;;-3.24;55.62
14295;BME280;7231;59.370;18.016;2023-03-05T02:43:59;100042.94;;;-3.11;55.49
14295;BME280;7231;59.370;18.016;2023-03-05T02:46:27;100037.72;;;-3.12;55.42
14295;BME280;7231;59.370;18.016;2023-03-05T02:48:55;100018.16;;;-3.23;55.70
14295;BME280;7231;59.370;18.016;2023-03-05T02:51:23;100029.91;;;-3.14;55.58
14295;BME280;7231;59.370;18.016;2023-03-05T02:53:51;100018.94;;;-3.24;56.06
14295;BME280;7231;59.370;18.016;2023-03-05T02:56:20;100035.84;;;-3.15;55.98
14295;BME280;7231;59.370;18.016;2023-03-05T02:58:48;100029.72;;;-3.17;55.80
14295;BME280;7231;59.370;18.016;2023-03-05T03:01:16;100028.72;;;-3.19;56.37
14295;BME280;7231;59.370;18.016;2023-03-05T03:03:44;100024.47;;;-3.18;56.05
14295;BME280;7231;59.370;18.016;2023-03-05T03:06:12;99991.78;;;-3.34;56.07
14295;BME280;7231;59.370;18.016;2023-03-05T03:08:40;99993.34;;;-3.36;56.04
14295;BME280;7231;59.370;18.016;2023-03-05T03:11:09;100019.03;;;-3.23;56.23
14295;BME280;7231;59.370;18.016;2023-03-05T03:13:40;100006.56;;;-3.30;56.49
14295;BME280;7231;59.370;18.016;2023-03-05T03:16:10;100010.34;;;-3.25;56.43
14295;BME280;7231;59.370;18.016;2023-03-05T03:18:39;100010.91;;;-3.29;56.42
14295;BME280;7231;59.370;18.016;2023-03-05T03:21:07;100006.69;;;-3.29;56.26
14295;BME280;7231;59.370;18.016;2023-03-05T03:23:35;99986.22;;;-3.40;56.95
14295;BME280;7231;59.370;18.016;2023-03-05T03:26:03;100004.81;;;-3.31;56.79
14295;BME280;7231;59.370;18.016;2023-03-05T03:28:31;100005.59;;;-3.32;56.60
14295;BME280;7231;59.370;18.016;2023-03-05T03:31:00;100005.47;;;-3.34;56.46
14295;BME280;7231;59.370;18.016;2023-03-05T03:33:28;100009.72;;;-3.34;56.55
14295;BME280;7231;59.370;18.016;2023-03-05T03:35:56;100000.25;;;-3.35;56.74
14295;BME280;7231;59.370;18.016;2023-03-05T03:38:24;99986.78;;;-3.44;56.94
14295;BME280;7231;59.370;18.016;2023-03-05T03:40:52;99994.91;;;-3.38;57.16
14295;BME280;7231;59.370;18.016;2023-03-05T03:43:20;99975.22;;;-3.51;57.29
14295;BME280;7231;59.370;18.016;2023-03-05T03:45:48;99993.91;;;-3.40;57.15
14295;BME280;7231;59.370;18.016;2023-03-05T03:48:18;99991.13;;;-3.43;56.76
14295;BME280;7231;59.370;18.016;2023-03-05T03:50:45;99942.91;;;-3.74;57.44
14295;BME280;7231;59.370;18.016;2023-03-05T03:53:13;99971.34;;;-3.57;57.62
14295;BME280;7231;59.370;18.016;2023-03-05T03:55:43;99990.94;;;-3.46;57.50
14295;BME280;7231;59.370;18.016;2023-03-05T03:58:12;99985.81;;;-3.46;57.25
14295;BME280;7231;59.370;18.016;2023-03-05T04:00:40;99968.91;;;-3.56;57.52
14295;BME280;7231;59.370;18.016;2023-03-05T04:03:08;99942.22;;;-3.71;57.57
14295;BME280;7231;59.370;18.016;2023-03-05T04:05:37;99982.25;;;-3.48;57.58
14295;BME280;7231;59.370;18.016;2023-03-05T04:08:05;99977.91;;;-3.49;57.65
14295;BME280;7231;59.370;18.016;2023-03-05T04:10:37;99858.75;;;-4.17;57.60
14295;BME280;7231;59.370;18.016;2023-03-05T04:13:05;99971.00;;;-3.50;57.77
14295;BME280;7231;59.370;18.016;2023-03-05T04:15:33;99973.66;;;-3.49;58.19
14295;BME280;7231;59.370;18.016;2023-03-05T04:18:02;99972.00;;;-3.48;57.92
14295;BME280;7231;59.370;18.016;2023-03-05T04:20:30;99975.34;;;-3.49;57.70
14295;BME280;7231;59.370;18.016;2023-03-05T04:22:59;99972.78;;;-3.49;57.87
14295;BME280;7231;59.370;18.016;2023-03-05T04:25:27;99965.09;;;-3.49;57.89
14295;BME280;7231;59.370;18.016;2023-03-05T04:27:55;99964.19;;;-3.50;58.07
14295;BME280;7231;59.370;18.016;2023-03-05T04:30:23;99958.09;;;-3.52;57.83
14295;BME280;7231;59.370;18.016;2023-03-05T04:32:51;99969.22;;;-3.51;58.36
14295;BME280;7231;59.370;18.016;2023-03-05T04:35:19;99964.88;;;-3.52;58.27
14295;BME280;7231;59.370;18.016;2023-03-05T04:37:47;99955.41;;;-3.53;58.20
14295;BME280;7231;59.370;18.016;2023-03-05T04:40:17;99956.19;;;-3.54;58.53
14295;BME280;7231;59.370;18.016;2023-03-05T04:42:45;99955.31;;;-3.55;58.35
14295;BME280;7231;59.370;18.016;2023-03-05T04:45:13;99959.53;;;-3.55;58.79
14295;BME280;7231;59.370;18.016;2023-03-05T04:47:42;99953.41;;;-3.57;58.63
14295;BME280;7231;59.370;18.016;2023-03-05T04:50:11;99922.63;;;-3.71;58.99
14295;BME280;7231;59.370;18.016;2023-03-05T04:52:40;99950.88;;;-3.57;58.84
14295;BME280;7231;59.370;18.016;2023-03-05T04:55:10;99950.88;;;-3.57;58.43
14295;BME280;7231;59.370;18.016;2023-03-05T04:57:40;99950.75;;;-3.59;58.90
14295;BME280;7231;59.370;18.016;2023-03-05T05:00:10;99943.06;;;-3.59;58.90
14295;BME280;7231;59.370;18.016;2023-03-05T05:02:40;99943.06;;;-3.59;58.56
14295;BME280;7231;59.370;18.016;2023-03-05T05:05:09;99869.97;;;-4.04;58.60
14295;BME280;7231;59.370;18.016;2023-03-05T05:07:38;99941.19;;;-3.62;58.91
14295;BME280;7231;59.370;18.016;2023-03-05T05:10:08;99902.06;;;-3.84;59.02
14295;BME280;7231;59.370;18.016;2023-03-05T05:12:36;99941.75;;;-3.66;58.89
14295;BME280;7231;59.370;18.016;2023-03-05T05:15:07;99914.31;;;-3.80;58.94
14295;BME280;7231;59.370;18.016;2023-03-05T05:17:35;99944.31;;;-3.66;58.81
14295;BME280;7231;59.370;18.016;2023-03-05T05:20:04;99863.53;;;-4.10;59.29
14295;BME280;7231;59.370;18.016;2023-03-05T05:22:33;99936.63;;;-3.66;59.06
14295;BME280;7231;59.370;18.016;2023-03-05T05:25:02;99928.22;;;-3.76;59.33
14295;BME280;7231;59.370;18.016;2023-03-05T05:27:30;99929.63;;;-3.68;59.49
14295;BME280;7231;59.370;18.016;2023-03-05T05:29:58;99932.97;;;-3.69;59.05
14295;BME280;7231;59.370;18.016;2023-03-05T05:32:28;99900.19;;;-3.86;58.99
14295;BME280;7231;59.370;18.016;2023-03-05T05:34:57;99864.06;;;-4.03;58.79
14295;BME280;7231;59.370;18.016;2023-03-05T05:37:26;99926.06;;;-3.70;59.35
14295;BME280;7231;59.370;18.016;2023-03-05T05:39:54;99883.41;;;-3.95;59.35
14295;BME280;7231;59.370;18.016;2023-03-05T05:42:23;99922.63;;;-3.71;59.48
14295;BME280;7231;59.370;18.016;2023-03-05T05:44:51;99925.28;;;-3.69;59.39
14295;BME280;7231;59.370;18.016;2023-03-05T05:47:21;99921.84;;;-3.70;59.27
14295;BME280;7231;59.370;18.016;2023-03-05T05:49:50;99924.41;;;-3.70;59.43
14295;BME280;7231;59.370;18.016;2023-03-05T05:52:18;99927.06;;;-3.68;59.53
14295;BME280;7231;59.370;18.016;2023-03-05T05:54:46;99912.28;;;-3.72;59.44
14295;BME280;7231;59.370;18.016;2023-03-05T05:57:14;99927.38;;;-3.64;59.94
14295;BME280;7231;59.370;18.016;2023-03-05T05:59:42;99921.69;;;-3.60;59.77
14295;BME280;7231;59.370;18.016;2023-03-05T06:02:10;99918.56;;;-3.55;59.85
14295;BME280;7231;59.370;18.016;2023-03-05T06:04:38;99906.53;;;-3.56;59.43
14295;BME280;7231;59.370;18.016;2023-03-05T06:07:07;99900.50;;;-3.57;59.54
14295;BME280;7231;59.370;18.016;2023-03-05T06:09:35;99886.41;;;-3.64;59.87
14295;BME280;7231;59.370;18.016;2023-03-05T06:12:04;99908.81;;;-3.48;59.87
14295;BME280;7231;59.370;18.016;2023-03-05T06:14:32;99908.94;;;-3.46;59.76
14295;BME280;7231;59.370;18.016;2023-03-05T06:17:00;99914.25;;;-3.43;60.09
14295;BME280;7231;59.370;18.016;2023-03-05T06:19:28;99886.03;;;-3.56;59.85
14295;BME280;7231;59.370;18.016;2023-03-05T06:21:56;99912.22;;;-3.36;60.25
14295;BME280;7231;59.370;18.016;2023-03-05T06:24:25;99895.66;;;-3.41;60.29
14295;BME280;7231;59.370;18.016;2023-03-05T06:26:54;99909.50;;;-3.25;60.09
14295;BME280;7231;59.370;18.016;2023-03-05T06:29:22;99898.16;;;-3.29;59.81
14295;BME280;7231;59.370;18.016;2023-03-05T06:31:50;99891.34;;;-3.29;59.88
14295;BME280;7231;59.370;18.016;2023-03-05T06:34:18;99919.97;;;-3.09;60.29
14295;BME280;7231;59.370;18.016;2023-03-05T06:36:45;99910.84;;;-2.92;59.90
14295;BME280;7231;59.370;18.016;2023-03-05T06:39:13;99908.31;;;-2.66;60.00
14295;BME280;7231;59.370;18.016;2023-03-05T06:41:43;99905.09;;;-2.36;60.25
14295;BME280;7231;59.370;18.016;2023-03-05T06:44:11;99902.78;;;-2.05;59.54
14295;BME280;7231;59.370;18.016;2023-03-05T06:46:39;99896.41;;;-1.83;59.34
14295;BME280;7231;59.370;18.016;2023-03-05T06:49:07;99895.59;;;-1.69;59.02
14295;BME280;7231;59.370;18.016;2023-03-05T06:51:37;99899.69;;;-1.58;58.65
14295;BME280;7231;59.370;18.016;2023-03-05T06:54:07;99869.88;;;-1.69;58.55
14295;BME280;7231;59.370;18.016;2023-03-05T06:56:36;99901.19;;;-1.61;58.55
14295;BME280;7231;59.370;18.016;2023-03-05T06:59:06;99905.34;;;-1.64;58.19
14295;BME280;7231;59.370;18.016;2023-03-05T07:01:34;99875.53;;;-1.75;58.57
14295;BME280;7231;59.370;18.016;2023-03-05T07:04:03;99890.22;;;-1.59;58.66
14295;BME280;7231;59.370;18.016;2023-03-05T07:06:33;99898.09;;;-1.56;58.68
14295;BME280;7231;59.370;18.016;2023-03-05T07:09:03;99883.56;;;-1.55;59.22
14295;BME280;7231;59.370;18.016;2023-03-05T07:11:32;99891.84;;;-1.32;59.94
14295;BME280;7231;59.370;18.016;2023-03-05T07:14:01;99889.94;;;-0.91;61.45
14295;BME280;7231;59.370;18.016;2023-03-05T07:16:31;99885.19;;;-0.40;62.21
14295;BME280;7231;59.370;18.016;2023-03-05T07:19:02;99877.13;;;0.02;61.87
14295;BME280;7231;59.370;18.016;2023-03-05T07:21:32;99881.75;;;0.40;61.26
14295;BME280;7231;59.370;18.016;2023-03-05T07:24:04;99876.41;;;0.69;61.01
14295;BME280;7231;59.370;18.016;2023-03-05T07:26:35;99883.28;;;1.03;60.30
14295;BME280;7231;59.370;18.016;2023-03-05T07:29:03;99870.41;;;1.20;59.67
14295;BME280;7231;59.370;18.016;2023-03-05T07:31:33;99872.72;;;1.50;60.07
14295;BME280;7231;59.370;18.016;2023-03-05T07:34:02;99854.75;;;1.71;58.88
14295;BME280;7231;59.370;18.016;2023-03-05T07:36:32;99863.59;;;1.93;58.74
14295;BME280;7231;59.370;18.016;2023-03-05T07:39:01;99858.16;;;2.07;57.65
14295;BME280;7231;59.370;18.016;2023-03-05T07:41:30;99847.50;;;2.18;58.04
14295;BME280;7231;59.370;18.016;2023-03-05T07:43:58;99848.59;;;2.43;56.75
14295;BME280;7231;59.370;18.016;2023-03-05T07:46:29;99843.66;;;2.68;56.53
14295;BME280;7231;59.370;18.016;2023-03-05T07:48:59;99810.19;;;2.73;55.70
14295;BME280;7231;59.370;18.016;2023-03-05T07:51:27;99847.22;;;3.12;54.99
14295;BME280;7231;59.370;18.016;2023-03-05T07:53:56;99855.75;;;3.30;54.76
14295;BME280;7231;59.370;18.016;2023-03-05T07:56:26;99855.81;;;3.52;54.21
14295;BME280;7231;59.370;18.016;2023-03-05T07:58:57;99853.25;;;3.75;53.48
14295;BME280;7231;59.370;18.016;2023-03-05T08:01:27;99857.84;;;4.04;53.04
14295;BME280;7231;59.370;18.016;2023-03-05T08:03:55;99841.81;;;4.38;52.94
14295;BME280;7231;59.370;18.016;2023-03-05T08:06:25;99848.56;;;4.57;51.05
14295;BME280;7231;59.370;18.016;2023-03-05T08:08:53;99844.84;;;4.27;50.22
14295;BME280;7231;59.370;18.016;2023-03-05T08:11:21;99847.66;;;4.09;50.40
14295;BME280;7231;59.370;18.016;2023-03-05T08:13:49;99838.22;;;4.35;50.82
14295;BME280;7231;59.370;18.016;2023-03-05T08:16:19;99835.13;;;4.69;50.45
14295;BME280;7231;59.370;18.016;2023-03-05T08:18:47;99831.94;;;5.01;49.79
14295;BME280;7231;59.370;18.016;2023-03-05T08:21:17;99818.22;;;5.32;49.63
14295;BME280;7231;59.370;18.016;2023-03-05T08:23:46;99794.50;;;5.77;49.05
14295;BME280;7231;59.370;18.016;2023-03-05T08:26:17;99800.72;;;6.10;48.49
14295;BME280;7231;59.370;18.016;2023-03-05T08:28:46;99805.94;;;6.10;47.35
14295;BME280;7231;59.370;18.016;2023-03-05T08:31:15;99810.97;;;6.04;46.88
14295;BME280;7231;59.370;18.016;2023-03-05T08:33:43;99807.16;;;5.66;45.89
14295;BME280;7231;59.370;18.016;2023-03-05T08:36:11;99807.19;;;5.39;46.00
14295;BME280;7231;59.370;18.016;2023-03-05T08:38:39;99801.19;;;5.13;45.50
14295;BME280;7231;59.370;18.016;2023-03-05T08:41:10;99805.28;;;4.81;45.89
14295;BME280;7231;59.370;18.016;2023-03-05T08:43:38;99791.75;;;4.41;45.90
14295;BME280;7231;59.370;18.016;2023-03-05T08:46:06;99798.31;;;4.07;45.87
14295;BME280;7231;59.370;18.016;2023-03-05T08:48:35;99773.13;;;3.58;46.12
14295;BME280;7231;59.370;18.016;2023-03-05T08:51:06;99767.69;;;3.30;45.89
14295;BME280;7231;59.370;18.016;2023-03-05T08:53:34;99783.38;;;3.12;46.46
14295;BME280;7231;59.370;18.016;2023-03-05T08:56:03;99792.91;;;2.92;46.36
14295;BME280;7231;59.370;18.016;2023-03-05T08:58:32;99787.19;;;2.39;46.88
14295;BME280;7231;59.370;18.016;2023-03-05T09:01:00;99777.81;;;2.21;46.88
14295;BME280;7231;59.370;18.016;2023-03-05T09:03:28;99806.59;;;2.29;47.72
14295;BME280;7231;59.370;18.016;2023-03-05T09:05:58;99807.97;;;2.21;47.75
14295;BME280;7231;59.370;18.016;2023-03-05T09:08:27;99760.94;;;1.91;47.81
14295;BME280;7231;59.370;18.016;2023-03-05T09:10:55;99807.34;;;2.26;47.92
14295;BME280;7231;59.370;18.016;2023-03-05T09:13:23;99808.84;;;2.41;48.91
14295;BME280;7231;59.370;18.016;2023-03-05T09:15:56;99778.94;;;2.47;48.79
14295;BME280;7231;59.370;18.016;2023-03-05T09:18:26;99805.50;;;2.64;49.08
14295;BME280;7231;59.370;18.016;2023-03-05T09:20:54;99805.53;;;2.85;49.52
14295;BME280;7231;59.370;18.016;2023-03-05T09:23:22;99771.88;;;3.06;49.45
14295;BME280;7231;59.370;18.016;2023-03-05T09:25:51;99697.38;;;3.21;49.35
14295;BME280;7231;59.370;18.016;2023-03-05T09:28:18;99794.13;;;3.88;48.44
14295;BME280;7231;59.370;18.016;2023-03-05T09:30:46;99785.75;;;3.96;48.28
14295;BME280;7231;59.370;18.016;2023-03-05T09:33:16;99787.00;;;4.05;48.36
14295;BME280;7231;59.370;18.016;2023-03-05T09:35:44;99782.63;;;4.77;49.06
14295;BME280;7231;59.370;18.016;2023-03-05T09:38:13;99748.97;;;5.34;47.97
14295;BME280;7231;59.370;18.016;2023-03-05T09:40:47;99773.28;;;5.92;47.12
14295;BME280;7231;59.370;18.016;2023-03-05T09:43:27;99755.13;;;5.93;45.42
14295;BME280;7231;59.370;18.016;2023-03-05T09:46:04;99757.44;;;5.55;45.31
14295;BME280;7231;59.370;18.016;2023-03-05T09:48:47;99762.19;;;5.13;45.39
14295;BME280;7231;59.370;18.016;2023-03-05T09:51:21;99770.13;;;4.66;44.89
14295;BME280;7231;59.370;18.016;2023-03-05T09:53:54;99769.38;;;4.44;45.55
14295;BME280;7231;59.370;18.016;2023-03-05T09:56:29;99749.44;;;4.43;45.77
14295;BME280;7231;59.370;18.016;2023-03-05T09:59:02;99769.34;;;4.68;45.71
14295;BME280;7231;59.370;18.016;2023-03-05T10:01:36;99775.63;;;4.75;45.57
14295;BME280;7231;59.370;18.016;2023-03-05T10:04:09;99771.00;;;4.66;45.47
14295;BME280;7231;59.370;18.016;2023-03-05T10:06:45;99745.91;;;4.41;45.96
14295;BME280;7231;59.370;18.016;2023-03-05T10:09:24;99761.84;;;4.52;45.26
14295;BME280;7231;59.370;18.016;2023-03-05T10:11:56;99767.41;;;4.63;46.35
14295;BME280;7231;59.370;18.016;2023-03-05T10:14:28;99758.94;;;4.94;45.94
14295;BME280;7231;59.370;18.016;2023-03-05T10:20:17;99763.75;;;5.64;44.46
14295;BME280;7231;59.370;18.016;2023-03-05T10:22:58;99749.75;;;5.88;44.48
14295;BME280;7231;59.370;18.016;2023-03-05T10:25:38;99728.22;;;5.93;44.49
14295;BME280;7231;59.370;18.016;2023-03-05T10:28:15;99752.38;;;6.50;44.32
14295;BME280;7231;59.370;18.016;2023-03-05T10:30:57;99752.84;;;7.01;44.04
14295;BME280;7231;59.370;18.016;2023-03-05T10:33:33;99732.72;;;7.32;43.34
14295;BME280;7231;59.370;18.016;2023-03-05T10:36:19;99741.66;;;7.05;42.80
14295;BME280;7231;59.370;18.016;2023-03-05T10:39:19;99727.06;;;6.44;41.95
14295;BME280;7231;59.370;18.016;2023-03-05T10:42:03;99738.16;;;6.37;43.08
14295;BME280;7231;59.370;18.016;2023-03-05T10:44:36;99736.13;;;6.27;42.86
14295;BME280;7231;59.370;18.016;2023-03-05T10:47:13;99727.53;;;6.30;42.80
14295;BME280;7231;59.370;18.016;2023-03-05T10:49:48;99723.34;;;6.68;42.31
14295;BME280;7231;59.370;18.016;2023-03-05T10:52:20;99727.81;;;6.73;41.75
14295;BME280;7231;59.370;18.016;2023-03-05T10:54:49;99724.25;;;6.70;42.89
14295;BME280;7231;59.370;18.016;2023-03-05T10:57:19;99735.53;;;7.03;41.82
14295;BME280;7231;59.370;18.016;2023-03-05T10:59:50;99708.66;;;6.71;41.81
14295;BME280;7231;59.370;18.016;2023-03-05T11:02:20;99736.03;;;6.56;41.76
14295;BME280;7231;59.370;18.016;2023-03-05T11:04:49;99723.38;;;6.36;41.59
14295;BME280;7231;59.370;18.016;2023-03-05T11:07:35;99710.28;;;6.66;41.92
14295;BME280;7231;59.370;18.016;2023-03-05T11:10:12;99713.94;;;7.09;41.98
14295;BME280;7231;59.370;18.016;2023-03-05T11:12:41;99714.53;;;7.35;40.70
14295;BME280;7231;59.370;18.016;2023-03-05T11:15:28;99717.56;;;7.15;40.56
14295;BME280;7231;59.370;18.016;2023-03-05T11:21:07;99714.88;;;7.12;40.79
14295;BME280;7231;59.370;18.016;2023-03-05T11:23:37;99571.38;;;6.67;40.91
14295;BME280;7231;59.370;18.016;2023-03-05T11:26:18;99711.41;;;7.49;39.96
14295;BME280;7231;59.370;18.016;2023-03-05T11:28:56;99700.06;;;7.47;40.19
14295;BME280;7231;59.370;18.016;2023-03-05T11:31:26;99703.47;;;7.87;40.58
14295;BME280;7231;59.370;18.016;2023-03-05T11:33:58;99702.91;;;8.02;39.31
14295;BME280;7231;59.370;18.016;2023-03-05T11:36:29;99707.03;;;7.91;38.69
14295;BME280;7231;59.370;18.016;2023-03-05T11:39:08;99622.16;;;7.24;38.48
14295;BME280;7231;59.370;18.016;2023-03-05T11:41:39;99656.91;;;7.23;39.08
14295;BME280;7231;59.370;18.016;2023-03-05T11:44:11;99644.31;;;6.67;38.20
14295;BME280;7231;59.370;18.016;2023-03-05T11:46:43;99698.53;;;6.49;39.09
14295;BME280;7231;59.370;18.016;2023-03-05T11:49:15;99704.38;;;5.20;39.34
14295;BME280;7231;59.370;18.016;2023-03-05T11:51:49;99712.75;;;4.58;40.69
14295;BME280;7231;59.370;18.016;2023-03-05T11:54:25;99712.47;;;4.25;40.86
14295;BME280;7231;59.370;18.016;2023-03-05T11:56:55;99694.22;;;3.74;41.49
14295;BME280;7231;59.370;18.016;2023-03-05T11:59:27;99633.63;;;2.80;41.87
14295;BME280;7231;59.370;18.016;2023-03-05T12:01:56;99640.53;;;3.02;42.16
14295;BME280;7231;59.370;18.016;2023-03-05T12:04:25;99714.81;;;3.47;42.67
14295;BME280;7231;59.370;18.016;2023-03-05T12:06:57;99712.19;;;3.70;42.85
14295;BME280;7231;59.370;18.016;2023-03-05T12:09:33;99704.66;;;3.76;42.44
14295;BME280;7231;59.370;18.016;2023-03-05T12:12:11;99719.84;;;3.67;42.61
14295;BME280;7231;59.370;18.016;2023-03-05T12:14:49;99716.31;;;3.65;42.60
14295;BME280;7231;59.370;18.016;2023-03-05T12:17:23;99714.44;;;3.61;42.72
14295;BME280;7231;59.370;18.016;2023-03-05T12:19:57;99688.59;;;3.40;42.92
14295;BME280;7231;59.370;18.016;2023-03-05T12:22:33;99702.16;;;3.33;43.31
14295;BME280;7231;59.370;18.016;2023-03-05T12:25:24;99703.06;;;3.79;43.48
14295;BME280;7231;59.370;18.016;2023-03-05T12:27:52;99702.66;;;4.16;43.10
14295;BME280;7231;59.370;18.016;2023-03-05T12:30:57;99694.22;;;4.47;43.06
14295;BME280;7231;59.370;18.016;2023-03-05T12:33:34;99687.19;;;4.70;42.56
14295;BME280;7231;59.370;18.016;2023-03-05T12:36:31;99690.63;;;4.69;42.81
14295;BME280;7231;59.370;18.016;2023-03-05T12:38:59;99677.50;;;4.65;42.68
14295;BME280;7231;59.370;18.016;2023-03-05T12:41:37;99704.41;;;4.17;43.78
14295;BME280;7231;59.370;18.016;2023-03-05T12:44:23;99702.44;;;3.63;44.83
14295;BME280;7231;59.370;18.016;2023-03-05T12:47:16;99714.44;;;3.61;46.17
14295;BME280;7231;59.370;18.016;2023-03-05T12:49:47;99702.59;;;3.67;45.75
14295;BME280;7231;59.370;18.016;2023-03-05T12:52:24;99629.75;;;3.13;46.06
14295;BME280;7231;59.370;18.016;2023-03-05T12:55:14;99709.63;;;3.47;46.45
14295;BME280;7231;59.370;18.016;2023-03-05T12:57:47;99688.31;;;3.54;46.68
14295;BME280;7231;59.370;18.016;2023-03-05T13:00:23;99709.22;;;3.83;47.11
14295;BME280;7231;59.370;18.016;2023-03-05T13:02:54;99698.53;;;3.98;47.15
14295;BME280;7231;59.370;18.016;2023-03-05T13:05:28;99691.41;;;3.92;47.05
14295;BME280;7231;59.370;18.016;2023-03-05T13:08:10;99710.72;;;3.76;47.36
14295;BME280;7231;59.370;18.016;2023-03-05T13:10:41;99704.31;;;3.67;47.46
14295;BME280;7231;59.370;18.016;2023-03-05T13:13:13;99707.28;;;3.53;47.80
14295;BME280;7231;59.370;18.016;2023-03-05T13:15:45;99707.31;;;3.55;47.98
14295;BME280;7231;59.370;18.016;2023-03-05T13:18:18;99703.53;;;3.69;47.81
14295;BME280;7231;59.370;18.016;2023-03-05T13:20:47;99702.81;;;3.73;47.55
14295;BME280;7231;59.370;18.016;2023-03-05T13:23:23;99702.44;;;3.63;47.76
14295;BME280;7231;59.370;18.016;2023-03-05T13:25:57;99701.84;;;3.47;47.92
14295;BME280;7231;59.370;18.016;2023-03-05T13:28:27;99699.63;;;3.34;48.06